createdAt,value
2019-04-25T00:00:43.278Z,47.45
2019-04-25T00:03:13.484Z,49.75
2019-04-25T00:05:43.611Z,49.80
2019-04-25T00:08:14.516Z,44.55
2019-04-25T00:10:44.429Z,56.95
2019-04-25T00:13:15.022Z,64.80
2019-04-25T00:18:15.660Z,59.35
2019-04-25T00:20:52.942Z,54.33
2019-04-25T00:23:22.794Z,61.73
2019-04-25T00:26:12.157Z,53.75
2019-04-25T00:28:43.586Z,56.80
2019-04-25T00:31:13.722Z,60.52
2019-04-25T00:33:44.903Z,55.73
2019-04-25T00:36:15.031Z,49.00
2019-04-25T00:38:47.601Z,51.83
2019-04-25T00:41:16.419Z,52.73
2019-04-25T00:43:46.366Z,55.05
2019-04-25T00:46:16.254Z,44.88
2019-04-25T00:48:46.187Z,54.63
2019-04-25T00:51:16.062Z,50.40
2019-04-25T00:53:46.126Z,51.70
2019-04-25T00:56:16.044Z,49.70
2019-04-25T00:58:54.111Z,49.30
2019-04-25T01:01:26.574Z,58.45
2019-04-25T01:03:56.618Z,46.73
2019-04-25T01:06:26.375Z,49.20
2019-04-25T01:08:56.282Z,58.95
2019-04-25T01:11:26.160Z,57.30
2019-04-25T01:13:56.125Z,51.30
2019-04-25T01:16:25.901Z,50.08
2019-04-25T01:18:55.841Z,50.08
2019-04-25T01:21:25.676Z,56.40
2019-04-25T01:23:55.818Z,57.33
2019-04-25T01:26:25.769Z,56.75
2019-04-25T01:28:56.047Z,49.93
2019-04-25T01:31:27.637Z,59.73
2019-04-25T01:33:57.454Z,65.30
2019-04-25T01:36:44.907Z,72.72
2019-04-25T01:39:28.344Z,49.45
2019-04-25T01:41:59.777Z,52.50
2019-04-25T01:44:31.257Z,50.30
2019-04-25T01:47:01.211Z,55.20
2019-04-25T01:49:31.213Z,52.83
2019-04-25T01:52:01.112Z,43.45
2019-04-25T01:54:31.073Z,49.13
2019-04-25T01:57:00.898Z,49.45
2019-04-25T01:59:30.748Z,43.58
2019-04-25T02:02:00.674Z,42.43
2019-04-25T02:04:30.493Z,44.65
2019-04-25T02:07:00.374Z,49.13
2019-04-25T02:09:30.388Z,46.80
2019-04-25T02:12:01.832Z,42.48
2019-04-25T02:14:31.562Z,49.25
2019-04-25T02:17:02.340Z,47.10
2019-04-25T02:19:33.916Z,55.63
2019-04-25T02:22:04.562Z,49.18
2019-04-25T02:24:34.424Z,49.83
2019-04-25T02:27:04.720Z,50.20
2019-04-25T02:29:35.684Z,45.20
2019-04-25T02:32:08.954Z,48.42
2019-04-25T02:34:37.661Z,48.55
2019-04-25T02:37:09.410Z,55.35
2019-04-25T02:39:39.518Z,58.28
2019-04-25T02:42:09.397Z,50.45
2019-04-25T02:44:40.907Z,53.02
2019-04-25T02:47:15.131Z,51.42
2019-04-25T02:49:57.305Z,48.70
2019-04-25T02:52:28.804Z,52.08
2019-04-25T02:55:00.277Z,61.25
2019-04-25T02:57:30.138Z,45.98
2019-04-25T03:00:00.279Z,46.70
2019-04-25T03:02:30.156Z,57.15
2019-04-25T03:05:01.212Z,54.40
2019-04-25T03:07:31.339Z,45.60
2019-04-25T03:10:01.983Z,53.02
2019-04-25T03:12:34.398Z,49.35
2019-04-25T03:15:08.334Z,47.58
2019-04-25T03:17:37.800Z,59.83
2019-04-25T03:20:27.208Z,48.98
2019-04-25T03:22:59.493Z,53.50
2019-04-25T03:25:29.864Z,47.25
2019-04-25T03:28:01.198Z,55.38
2019-04-25T03:30:31.140Z,54.30
2019-04-25T03:33:02.618Z,64.80
2019-04-25T03:35:33.243Z,51.40
2019-04-25T03:40:33.978Z,58.85
2019-04-25T03:43:05.068Z,60.12
2019-04-25T03:45:35.453Z,62.62
2019-04-25T03:48:06.271Z,60.23
2019-04-25T03:50:36.185Z,65.37
2019-04-25T03:53:07.927Z,64.25
2019-04-25T03:55:37.870Z,64.65
2019-04-25T03:58:10.534Z,62.10
2019-04-25T04:00:39.219Z,61.28
2019-04-25T04:03:09.152Z,63.30
2019-04-25T04:05:39.017Z,57.05
2019-04-25T04:08:09.694Z,54.98
2019-04-25T04:10:39.722Z,54.98
2019-04-25T04:13:10.253Z,56.73
2019-04-25T04:15:40.262Z,54.98
2019-04-25T04:18:11.656Z,65.78
2019-04-25T04:20:49.183Z,65.35
2019-04-25T04:23:36.890Z,61.88
2019-04-25T04:26:07.391Z,65.00
2019-04-25T04:28:37.309Z,67.70
2019-04-25T04:31:08.278Z,66.35
2019-04-25T04:33:38.305Z,65.00
2019-04-25T04:36:08.793Z,68.60
2019-04-25T04:38:38.651Z,63.10
2019-04-25T04:41:09.636Z,61.98
2019-04-25T04:43:39.602Z,63.00
2019-04-25T04:46:10.203Z,64.12
2019-04-25T04:51:09.139Z,61.92
2019-04-25T04:53:39.031Z,56.02
2019-04-25T04:56:09.648Z,47.58
2019-04-25T05:01:08.605Z,44.48
2019-04-25T05:03:53.947Z,44.75
2019-04-25T05:06:25.473Z,50.55
2019-04-25T05:08:56.915Z,49.98
2019-04-25T05:11:26.784Z,52.40
2019-04-25T05:13:57.633Z,42.93
2019-04-25T05:16:27.516Z,43.65
2019-04-25T05:18:57.360Z,40.23
2019-04-25T05:21:27.224Z,43.63
2019-04-25T05:23:57.182Z,36.15
2019-04-25T05:26:27.132Z,39.08
2019-04-25T05:28:56.985Z,37.48
2019-04-25T05:31:34.286Z,36.80
2019-04-25T05:34:04.216Z,39.45
2019-04-25T05:36:40.119Z,38.92
2019-04-25T05:39:10.301Z,34.90
2019-04-25T05:41:43.875Z,34.63
2019-04-25T05:44:15.690Z,40.03
2019-04-25T05:46:45.437Z,36.53
2019-04-25T05:49:15.658Z,39.53
2019-04-25T05:51:45.452Z,34.75
2019-04-25T05:54:16.523Z,36.40
2019-04-25T05:56:46.507Z,36.10
2019-04-25T05:59:17.942Z,37.55
2019-04-25T06:01:47.868Z,37.15
2019-04-25T06:04:17.965Z,46.83
2019-04-25T06:06:48.101Z,41.15
2019-04-25T06:09:19.519Z,38.10
2019-04-25T06:12:00.107Z,38.08
2019-04-25T06:17:06.667Z,41.48
2019-04-25T06:19:43.993Z,36.45
2019-04-25T06:22:23.363Z,44.58
2019-04-25T06:24:57.946Z,45.33
2019-04-25T06:27:33.654Z,39.63
2019-04-25T06:30:07.128Z,49.95
2019-04-25T06:32:37.054Z,41.70
2019-04-25T06:35:07.690Z,40.70
2019-04-25T06:37:37.657Z,48.25
2019-04-25T06:40:08.491Z,41.25
2019-04-25T06:42:39.325Z,46.45
2019-04-25T06:45:18.569Z,37.50
2019-04-25T06:47:49.998Z,47.55
2019-04-25T06:50:20.521Z,42.98
2019-04-25T06:52:51.411Z,47.15
2019-04-25T06:55:22.867Z,38.65
2019-04-25T06:57:53.988Z,37.63
2019-04-25T07:00:27.746Z,40.35
2019-04-25T07:02:56.267Z,49.53
2019-04-25T07:05:33.450Z,37.63
2019-04-25T07:07:57.827Z,42.17
2019-04-25T07:10:27.811Z,38.88
2019-04-25T07:12:57.651Z,37.98
2019-04-25T07:15:27.916Z,38.15
2019-04-25T07:20:27.070Z,37.60
2019-04-25T07:22:57.503Z,40.88
2019-04-25T07:25:28.981Z,37.78
2019-04-25T07:28:03.435Z,30.72
2019-04-25T07:30:51.448Z,40.50
2019-04-25T07:33:14.052Z,32.38
2019-04-25T07:35:43.868Z,41.02
2019-04-25T07:38:14.106Z,41.25
2019-04-25T07:40:44.126Z,47.15
2019-04-25T07:45:43.596Z,40.80
2019-04-25T07:48:13.948Z,39.40
2019-04-25T07:50:43.978Z,38.58
2019-04-25T07:53:14.837Z,43.13
2019-04-25T07:58:14.388Z,37.63
2019-04-25T08:00:45.339Z,36.80
2019-04-25T08:03:15.522Z,37.90
2019-04-25T08:05:45.330Z,46.10
2019-04-25T08:08:15.214Z,37.67
2019-04-25T08:11:04.470Z,40.23
2019-04-25T08:13:36.271Z,34.40
2019-04-25T08:16:07.745Z,34.58
2019-04-25T08:18:39.027Z,33.88
2019-04-25T08:21:08.865Z,38.28
2019-04-25T08:23:39.056Z,40.35
2019-04-25T08:26:09.835Z,44.53
2019-04-25T08:28:54.031Z,34.80
2019-04-25T08:31:11.593Z,39.45
2019-04-25T08:33:43.521Z,39.33
2019-04-25T08:36:13.719Z,35.58
2019-04-25T08:38:44.784Z,31.90
2019-04-25T08:41:14.671Z,34.23
2019-04-25T08:43:45.448Z,26.70
2019-04-25T08:46:15.465Z,28.87
2019-04-25T08:49:06.211Z,27.13
2019-04-25T08:51:44.704Z,34.30
2019-04-25T08:54:25.114Z,31.15
2019-04-25T08:56:56.614Z,28.40
2019-04-25T08:59:50.464Z,29.23
2019-04-25T09:02:23.552Z,32.28
2019-04-25T09:04:56.096Z,28.65
2019-04-25T09:07:26.013Z,32.45
2019-04-25T09:09:55.930Z,24.55
2019-04-25T09:12:25.818Z,29.32
2019-04-25T09:14:55.734Z,32.63
2019-04-25T09:17:25.646Z,28.12
2019-04-25T09:19:55.922Z,29.37
2019-04-25T09:22:28.950Z,25.75
2019-04-25T09:24:58.829Z,28.67
2019-04-25T09:27:28.727Z,28.67
2019-04-25T09:29:58.592Z,24.75
2019-04-25T09:32:28.422Z,31.95
2019-04-25T09:34:58.350Z,24.10
2019-04-25T09:37:28.179Z,22.65
2019-04-25T09:39:59.551Z,27.52
2019-04-25T09:42:30.422Z,25.77
2019-04-25T09:45:07.974Z,27.05
2019-04-25T09:47:39.486Z,21.53
2019-04-25T09:50:11.191Z,35.90
2019-04-25T09:52:41.142Z,28.73
2019-04-25T09:55:21.454Z,25.75
2019-04-25T09:57:55.592Z,19.27
2019-04-25T10:00:33.279Z,21.60
2019-04-25T10:03:04.522Z,25.73
2019-04-25T10:05:34.475Z,17.57
2019-04-25T10:08:04.607Z,17.92
2019-04-25T10:10:34.563Z,25.43
2019-04-25T10:13:06.585Z,17.55
2019-04-25T10:15:45.670Z,17.60
2019-04-25T10:18:16.996Z,17.15
2019-04-25T10:20:47.557Z,17.92
2019-04-25T10:23:17.721Z,18.45
2019-04-25T10:25:49.244Z,16.55
2019-04-25T10:28:19.108Z,15.68
2019-04-25T10:30:49.245Z,16.57
2019-04-25T10:33:24.189Z,13.30
2019-04-25T10:35:59.380Z,18.85
2019-04-25T10:38:27.912Z,15.98
2019-04-25T10:40:58.613Z,19.25
2019-04-25T10:43:28.540Z,16.67
2019-04-25T10:45:58.525Z,19.73
2019-04-25T10:48:28.290Z,18.65
2019-04-25T10:50:58.106Z,19.62
2019-04-25T10:53:28.013Z,16.85
2019-04-25T10:55:57.941Z,19.35
2019-04-25T10:58:27.803Z,22.20
2019-04-25T11:00:58.597Z,17.40
2019-04-25T11:03:31.176Z,20.60
2019-04-25T11:06:01.011Z,19.00
2019-04-25T11:08:31.068Z,18.30
2019-04-25T11:11:04.054Z,18.75
2019-04-25T11:13:35.477Z,18.23
2019-04-25T11:16:06.393Z,17.48
2019-04-25T11:18:36.283Z,18.25
2019-04-25T11:21:07.189Z,19.40
2019-04-25T11:23:37.007Z,18.92
2019-04-25T11:26:07.033Z,21.68
2019-04-25T11:28:38.003Z,17.02
2019-04-25T11:31:09.494Z,17.85
2019-04-25T11:33:59.037Z,16.95
2019-04-25T11:36:28.908Z,23.22
2019-04-25T11:39:16.611Z,20.32
2019-04-25T11:41:48.210Z,22.65
2019-04-25T11:44:18.120Z,26.37
2019-04-25T11:46:49.524Z,17.60
2019-04-25T11:49:20.997Z,16.45
2019-04-25T11:51:59.975Z,20.77
2019-04-25T11:54:35.908Z,18.50
2019-04-25T11:57:11.434Z,21.15
2019-04-25T11:59:41.994Z,21.50
2019-04-25T12:02:20.940Z,21.52
2019-04-25T12:04:49.049Z,22.10
2019-04-25T12:07:19.220Z,19.73
2019-04-25T12:09:49.935Z,18.50
2019-04-25T12:12:19.772Z,17.67
2019-04-25T12:14:49.581Z,20.02
2019-04-25T12:17:19.420Z,17.75
2019-04-25T12:19:49.260Z,20.80
2019-04-25T12:22:19.160Z,20.12
2019-04-25T12:24:49.060Z,19.42
2019-04-25T12:27:22.868Z,19.98
2019-04-25T12:29:52.787Z,25.02
2019-04-25T12:32:22.938Z,16.82
2019-04-25T12:34:53.639Z,19.07
2019-04-25T12:37:25.059Z,20.70
2019-04-25T12:39:55.914Z,18.98
2019-04-25T12:42:25.853Z,16.67
2019-04-25T12:44:58.125Z,19.15
2019-04-25T12:47:32.218Z,16.90
2019-04-25T12:50:02.114Z,17.75
2019-04-25T12:52:33.340Z,21.97
2019-04-25T12:55:04.459Z,21.87
2019-04-25T12:57:34.375Z,19.55
2019-04-25T13:00:05.950Z,22.70
2019-04-25T13:02:36.627Z,20.37
2019-04-25T13:05:07.557Z,20.70
2019-04-25T13:07:39.045Z,24.92
2019-04-25T13:10:09.358Z,23.85
2019-04-25T13:12:39.192Z,20.17
2019-04-25T13:15:09.832Z,24.85
2019-04-25T13:17:40.113Z,21.12
2019-04-25T13:20:10.088Z,20.88
2019-04-25T13:22:39.893Z,23.67
2019-04-25T13:25:11.028Z,25.23
2019-04-25T13:27:46.696Z,20.32
2019-04-25T13:30:33.994Z,22.93
2019-04-25T13:33:11.228Z,25.75
2019-04-25T13:35:43.381Z,21.12
2019-04-25T13:38:13.271Z,24.92
2019-04-25T13:40:43.031Z,27.48
2019-04-25T13:43:12.933Z,19.85
2019-04-25T13:45:43.775Z,22.40
2019-04-25T13:48:13.708Z,21.70
2019-04-25T13:50:44.357Z,25.97
2019-04-25T13:53:14.480Z,26.27
2019-04-25T13:55:44.334Z,23.57
2019-04-25T13:58:17.393Z,24.02
2019-04-25T14:00:47.225Z,24.82
2019-04-25T14:03:18.630Z,20.43
2019-04-25T14:05:50.161Z,33.63
2019-04-25T14:08:21.016Z,19.90
2019-04-25T14:10:50.875Z,20.52
2019-04-25T14:13:21.169Z,26.82
2019-04-25T14:15:59.380Z,20.52
2019-04-25T14:18:32.818Z,24.55
2019-04-25T14:21:10.093Z,28.17
2019-04-25T14:23:39.917Z,31.00
2019-04-25T14:26:13.254Z,27.25
2019-04-25T14:28:44.553Z,26.00
2019-04-25T14:31:33.509Z,24.98
2019-04-25T14:33:54.274Z,25.05
2019-04-25T14:36:27.637Z,27.17
2019-04-25T14:38:58.237Z,27.75
2019-04-25T14:41:32.586Z,24.37
2019-04-25T14:44:05.587Z,33.38
2019-04-25T14:46:37.725Z,30.65
2019-04-25T14:49:07.121Z,30.48
2019-04-25T14:51:38.512Z,24.35
2019-04-25T14:54:09.958Z,26.45
2019-04-25T14:56:42.871Z,23.98
2019-04-25T14:59:14.051Z,28.38
2019-04-25T15:01:46.719Z,25.00
2019-04-25T15:04:16.584Z,29.95
2019-04-25T15:06:48.347Z,31.90
2019-04-25T15:09:18.397Z,30.20
2019-04-25T15:11:51.063Z,27.15
2019-04-25T15:14:21.026Z,40.88
2019-04-25T15:16:53.931Z,37.85
2019-04-25T15:19:29.578Z,30.27
2019-04-25T15:21:59.380Z,46.55
2019-04-25T15:24:30.312Z,50.78
2019-04-25T15:27:00.068Z,81.92
2019-04-25T15:29:29.899Z,52.05
2019-04-25T15:31:59.781Z,37.60
2019-04-25T15:34:31.218Z,49.73
2019-04-25T15:37:08.634Z,50.70
2019-04-25T15:39:52.014Z,55.40
2019-04-25T15:42:39.725Z,45.20
2019-04-25T15:45:11.259Z,45.10
2019-04-25T15:47:41.265Z,54.50
2019-04-25T15:50:11.630Z,38.95
2019-04-25T15:55:10.926Z,56.53
2019-04-25T15:57:41.515Z,63.17
2019-04-25T16:00:13.744Z,49.90
2019-04-25T16:02:43.800Z,64.17
2019-04-25T16:05:13.813Z,53.42
2019-04-25T16:07:43.998Z,86.30
2019-04-25T16:10:14.460Z,73.80
2019-04-25T16:12:44.824Z,48.08
2019-04-25T16:15:14.736Z,55.30
2019-04-25T16:17:44.598Z,59.13
2019-04-25T16:20:15.420Z,66.07
2019-04-25T16:22:45.393Z,64.75
2019-04-25T16:25:15.613Z,70.35
2019-04-25T16:27:45.442Z,88.52
2019-04-25T16:30:15.519Z,93.70
2019-04-25T16:32:45.431Z,87.08
2019-04-25T16:35:15.307Z,80.42
2019-04-25T16:37:46.204Z,64.87
2019-04-25T16:40:16.237Z,58.58
2019-04-25T16:42:46.168Z,72.75
2019-04-25T16:45:16.244Z,64.70
2019-04-25T16:47:46.134Z,53.02
2019-04-25T16:50:17.201Z,49.10
2019-04-25T16:52:47.094Z,63.63
2019-04-25T16:55:17.419Z,58.05
2019-04-25T16:57:47.387Z,59.90
2019-04-25T17:00:36.220Z,56.55
2019-04-25T17:03:06.356Z,61.18
2019-04-25T17:05:39.350Z,69.10
2019-04-25T17:08:09.486Z,61.60
2019-04-25T17:10:39.563Z,65.25
2019-04-25T17:13:09.586Z,68.42
2019-04-25T17:15:49.857Z,85.67
2019-04-25T17:18:27.060Z,92.67
2019-04-25T17:21:11.819Z,78.35
2019-04-25T17:23:44.235Z,84.67
2019-04-25T17:26:14.597Z,72.10
2019-04-25T17:28:46.071Z,64.27
2019-04-25T17:31:26.486Z,79.85
2019-04-25T17:34:06.700Z,77.53
2019-04-25T17:36:44.059Z,66.97
2019-04-25T17:39:27.656Z,54.30
2019-04-25T17:41:57.587Z,45.33
2019-04-25T17:44:27.342Z,49.18
2019-04-25T17:47:06.120Z,42.58
2019-04-25T17:49:28.920Z,54.60
2019-04-25T17:51:58.735Z,48.63
2019-04-25T17:54:28.689Z,48.58
2019-04-25T17:56:58.755Z,60.63
2019-04-25T17:59:28.720Z,48.45
2019-04-25T18:01:58.637Z,47.25
2019-04-25T18:04:29.951Z,46.92
2019-04-25T18:06:59.802Z,41.33
2019-04-25T18:09:29.715Z,43.92
2019-04-25T18:11:59.597Z,40.88
2019-04-25T18:14:29.441Z,44.63
2019-04-25T18:16:59.415Z,45.63
2019-04-25T18:19:34.077Z,47.45
2019-04-25T18:22:11.390Z,40.52
2019-04-25T18:25:00.853Z,35.80
2019-04-25T18:27:33.320Z,38.38
2019-04-25T18:30:06.040Z,32.45
2019-04-25T18:32:37.063Z,38.23
2019-04-25T18:35:09.949Z,47.20
2019-04-25T18:37:53.302Z,43.13
2019-04-25T18:40:35.620Z,48.75
2019-04-25T18:43:04.137Z,44.83
2019-04-25T18:45:38.352Z,45.15
2019-04-25T18:48:08.225Z,58.73
2019-04-25T18:50:38.563Z,49.45
2019-04-25T18:53:10.011Z,46.88
2019-04-25T18:55:44.242Z,46.68
2019-04-25T18:58:31.727Z,42.10
2019-04-25T19:01:15.208Z,50.12
2019-04-25T19:03:52.537Z,46.75
2019-04-25T19:06:23.989Z,51.02
2019-04-25T19:08:53.899Z,40.38
2019-04-25T19:11:23.804Z,41.83
2019-04-25T19:13:53.757Z,43.00
2019-04-25T19:16:23.645Z,46.23
2019-04-25T19:18:53.514Z,46.73
2019-04-25T19:21:23.389Z,43.30
2019-04-25T19:23:54.171Z,43.50
2019-04-25T19:26:24.619Z,43.92
2019-04-25T19:28:54.501Z,43.52
2019-04-25T19:31:24.391Z,41.10
2019-04-25T19:33:54.282Z,45.73
2019-04-25T19:36:24.176Z,41.30
2019-04-25T19:38:54.524Z,42.25
2019-04-25T19:41:28.899Z,42.88
2019-04-25T19:44:12.523Z,38.02
2019-04-25T19:46:44.919Z,40.55
2019-04-25T19:49:14.873Z,35.45
2019-04-25T19:51:45.164Z,44.85
2019-04-25T19:54:15.035Z,35.55
2019-04-25T19:56:45.367Z,36.38
2019-04-25T19:59:15.283Z,34.65
2019-04-25T20:01:45.961Z,36.33
2019-04-25T20:04:20.440Z,37.08
2019-04-25T20:06:51.963Z,34.45
2019-04-25T20:09:39.701Z,42.60
2019-04-25T20:12:09.598Z,31.77
2019-04-25T20:14:39.334Z,36.42
2019-04-25T20:17:09.817Z,32.53
2019-04-25T20:19:39.681Z,32.93
2019-04-25T20:22:09.501Z,34.53
2019-04-25T20:24:39.396Z,36.63
2019-04-25T20:27:09.186Z,36.45
2019-04-25T20:29:39.145Z,39.63
2019-04-25T20:32:08.950Z,38.50
2019-04-25T20:34:38.893Z,34.10
2019-04-25T20:37:08.736Z,36.58
2019-04-25T20:39:38.505Z,31.80
2019-04-25T20:42:08.462Z,37.98
2019-04-25T20:44:38.318Z,41.35
2019-04-25T20:47:08.228Z,32.88
2019-04-25T20:49:38.114Z,35.28
2019-04-25T20:52:07.947Z,34.10
2019-04-25T20:54:37.803Z,31.57
2019-04-25T20:57:07.622Z,36.40
2019-04-25T20:59:37.457Z,39.03
2019-04-25T21:02:08.416Z,39.18
2019-04-25T21:04:42.939Z,31.75
2019-04-25T21:07:12.876Z,39.55
2019-04-25T21:09:42.708Z,36.53
2019-04-25T21:12:12.545Z,36.33
2019-04-25T21:14:43.990Z,38.60
2019-04-25T21:17:27.249Z,36.38
2019-04-25T21:19:58.815Z,39.05
2019-04-25T21:22:28.678Z,43.28
2019-04-25T21:24:58.547Z,42.50
2019-04-25T21:27:28.375Z,43.08
2019-04-25T21:29:58.298Z,38.88
2019-04-25T21:32:28.151Z,42.35
2019-04-25T21:34:59.020Z,40.33
2019-04-25T21:40:08.525Z,52.13
2019-04-25T21:42:40.372Z,46.02
2019-04-25T21:45:10.442Z,47.45
2019-04-25T21:47:40.275Z,47.58
2019-04-25T21:50:10.825Z,53.90
2019-04-25T21:55:10.092Z,52.30
2019-04-25T21:57:40.284Z,56.80
2019-04-25T22:00:13.465Z,68.50
2019-04-25T22:02:44.420Z,56.28
2019-04-25T22:05:14.524Z,64.42
2019-04-25T22:07:44.636Z,55.98
2019-04-25T22:10:14.876Z,61.10
2019-04-25T22:12:44.769Z,56.15
2019-04-25T22:15:16.293Z,56.55
2019-04-25T22:17:46.134Z,64.87
2019-04-25T22:20:16.122Z,65.25
2019-04-25T22:22:46.261Z,69.87
2019-04-25T22:25:16.000Z,56.57
2019-04-25T22:27:46.429Z,64.97
2019-04-25T22:30:18.030Z,68.47
2019-04-25T22:33:03.637Z,59.33
2019-04-25T22:35:53.342Z,55.40
2019-04-25T22:38:23.446Z,60.27
2019-04-25T22:40:54.625Z,56.08
2019-04-25T22:43:24.702Z,52.93
2019-04-25T22:45:54.956Z,57.13
2019-04-25T22:48:26.544Z,52.03
2019-04-25T22:50:57.530Z,44.70
2019-04-25T22:55:57.121Z,46.02
2019-04-25T22:58:27.013Z,44.27
2019-04-25T23:00:57.038Z,47.27
2019-04-25T23:03:28.527Z,41.02
2019-04-25T23:05:58.424Z,43.75
2019-04-25T23:08:28.632Z,39.92
2019-04-25T23:10:58.532Z,37.23
2019-04-25T23:13:28.463Z,38.28
2019-04-25T23:15:58.478Z,37.55
2019-04-25T23:18:28.620Z,42.43
2019-04-25T23:20:58.405Z,37.63
2019-04-25T23:23:28.482Z,33.67
2019-04-25T23:26:03.561Z,38.75
2019-04-25T23:28:40.304Z,38.02
2019-04-25T23:31:12.531Z,33.85
2019-04-25T23:33:42.489Z,31.35
2019-04-25T23:36:13.224Z,35.48
2019-04-25T23:38:43.068Z,34.95
2019-04-25T23:41:13.580Z,32.05
2019-04-25T23:43:43.477Z,30.50
2019-04-25T23:46:14.189Z,29.60
2019-04-25T23:48:44.341Z,35.65
2019-04-25T23:51:14.361Z,29.40
2019-04-25T23:53:45.062Z,36.53
2019-04-25T23:56:15.281Z,42.05
2019-04-25T23:58:45.289Z,31.68
